createdAt,value
2022-08-11T00:00:43.612Z,1.25
2022-08-11T00:02:53.094Z,1.40
2022-08-11T00:04:57.834Z,1.42
2022-08-11T00:07:03.834Z,1.00
2022-08-11T00:09:10.132Z,1.50
2022-08-11T00:11:13.568Z,1.50
2022-08-11T00:13:16.861Z,1.10
2022-08-11T00:15:19.396Z,1.48
2022-08-11T00:17:28.461Z,1.20
2022-08-11T00:20:12.507Z,1.63
2022-08-11T00:22:04.574Z,1.40
2022-08-11T00:24:08.919Z,1.17
2022-08-11T00:26:12.444Z,1.15
2022-08-11T00:28:24.467Z,1.00
2022-08-11T00:30:40.036Z,1.00
2022-08-11T00:32:45.487Z,1.02
2022-08-11T00:34:48.195Z,1.10
2022-08-11T00:36:57.906Z,0.98
2022-08-11T00:39:05.352Z,1.20
2022-08-11T00:41:29.362Z,1.30
2022-08-11T00:43:50.210Z,1.15
2022-08-11T00:46:23.505Z,1.45
2022-08-11T00:49:16.184Z,1.38
2022-08-11T00:52:06.811Z,1.60
2022-08-11T00:54:53.631Z,1.17
2022-08-11T00:57:37.021Z,1.40
2022-08-11T01:00:22.943Z,1.20
2022-08-11T01:03:04.137Z,1.40
2022-08-11T01:05:33.680Z,1.70
2022-08-11T01:08:02.529Z,1.75
2022-08-11T01:10:14.642Z,1.70
2022-08-11T01:12:45.946Z,1.63
2022-08-11T01:15:15.839Z,1.48
2022-08-11T01:17:26.815Z,1.27
2022-08-11T01:20:46.415Z,1.95
2022-08-11T01:23:24.967Z,1.23
2022-08-11T01:25:57.699Z,1.52
2022-08-11T01:28:15.322Z,1.33
2022-08-11T01:30:44.743Z,1.50
2022-08-11T01:33:24.082Z,1.02
2022-08-11T01:35:53.595Z,1.60
2022-08-11T01:38:36.595Z,1.20
2022-08-11T01:40:41.298Z,1.40
2022-08-11T01:43:43.739Z,1.30
2022-08-11T01:46:08.642Z,2.00
2022-08-11T01:48:41.075Z,1.48
2022-08-11T01:51:17.513Z,1.40
2022-08-11T01:53:40.044Z,1.25
2022-08-11T01:56:09.189Z,1.45
2022-08-11T01:58:20.680Z,1.30
2022-08-11T02:01:01.650Z,1.35
2022-08-11T02:03:37.810Z,1.50
2022-08-11T02:06:30.411Z,1.10
2022-08-11T02:08:56.157Z,1.75
2022-08-11T02:11:28.068Z,1.30
2022-08-11T02:13:42.541Z,1.58
2022-08-11T02:15:52.032Z,1.20
2022-08-11T02:18:24.456Z,1.35
2022-08-11T02:21:05.074Z,2.03
2022-08-11T02:24:04.489Z,1.67
2022-08-11T02:26:14.857Z,1.55
2022-08-11T02:28:16.787Z,1.20
2022-08-11T02:30:25.992Z,1.83
2022-08-11T02:33:16.593Z,1.52
2022-08-11T02:35:29.290Z,1.60
2022-08-11T02:37:31.417Z,1.48
2022-08-11T02:39:47.534Z,1.80
2022-08-11T02:42:33.443Z,1.40
2022-08-11T02:45:20.128Z,1.30
2022-08-11T02:48:10.516Z,1.42
2022-08-11T02:50:27.984Z,1.40
2022-08-11T02:52:51.754Z,1.77
2022-08-11T02:55:12.204Z,1.50
2022-08-11T02:57:43.590Z,1.58
2022-08-11T03:00:01.030Z,1.60
2022-08-11T03:02:43.376Z,1.83
2022-08-11T03:05:17.262Z,1.40
2022-08-11T03:07:33.847Z,1.85
2022-08-11T03:09:38.976Z,1.70
2022-08-11T03:12:43.794Z,1.95
2022-08-11T03:15:13.554Z,1.65
2022-08-11T03:17:54.190Z,1.88
2022-08-11T03:20:08.310Z,1.80
2022-08-11T03:22:17.791Z,2.00
2022-08-11T03:24:29.611Z,1.55
2022-08-11T03:26:34.460Z,2.05
2022-08-11T03:28:53.804Z,2.22
2022-08-11T03:31:27.137Z,1.65
2022-08-11T03:33:53.876Z,2.03
2022-08-11T03:36:27.360Z,1.65
2022-08-11T03:38:44.847Z,2.45
2022-08-11T03:42:04.418Z,2.10
2022-08-11T03:44:17.803Z,1.77
2022-08-11T03:46:48.397Z,2.22
2022-08-11T03:49:15.456Z,2.60
2022-08-11T03:51:27.538Z,2.28
2022-08-11T03:54:24.294Z,2.33
2022-08-11T03:57:03.581Z,2.08
2022-08-11T03:59:17.424Z,2.50
2022-08-11T04:01:29.714Z,2.33
2022-08-11T04:04:08.849Z,2.20
2022-08-11T04:06:34.476Z,2.60
2022-08-11T04:09:13.516Z,2.05
2022-08-11T04:11:31.488Z,2.53
2022-08-11T04:13:33.274Z,2.42
2022-08-11T04:16:11.992Z,2.45
2022-08-11T04:18:23.527Z,3.05
2022-08-11T04:20:44.478Z,2.38
2022-08-11T04:23:07.816Z,2.28
2022-08-11T04:25:16.335Z,3.75
2022-08-11T04:27:23.735Z,2.95
2022-08-11T04:30:03.518Z,2.53
2022-08-11T04:32:21.494Z,2.80
2022-08-11T04:34:44.657Z,2.67
2022-08-11T04:37:27.021Z,2.33
2022-08-11T04:39:49.663Z,2.53
2022-08-11T04:42:31.517Z,2.70
2022-08-11T04:45:14.974Z,2.92
2022-08-11T04:48:04.231Z,2.60
2022-08-11T04:50:42.098Z,5.10
2022-08-11T04:53:21.055Z,3.97
2022-08-11T04:56:23.209Z,2.92
2022-08-11T04:59:02.207Z,3.55
2022-08-11T05:01:42.750Z,3.30
2022-08-11T05:04:40.344Z,3.33
2022-08-11T05:07:11.286Z,3.75
2022-08-11T05:09:24.755Z,3.22
2022-08-11T05:12:04.302Z,3.70
2022-08-11T05:14:30.321Z,3.88
2022-08-11T05:17:00.094Z,4.20
2022-08-11T05:19:22.809Z,4.50
2022-08-11T05:21:45.055Z,4.43
2022-08-11T05:24:11.545Z,4.55
2022-08-11T05:26:46.632Z,5.40
2022-08-11T05:29:19.737Z,4.57
2022-08-11T05:31:51.009Z,4.97
2022-08-11T05:34:18.371Z,4.78
2022-08-11T05:36:37.486Z,5.45
2022-08-11T05:38:58.735Z,4.68
2022-08-11T05:41:20.113Z,5.10
2022-08-11T05:44:20.056Z,5.45
2022-08-11T05:46:25.163Z,5.03
2022-08-11T05:48:52.494Z,5.25
2022-08-11T05:51:16.457Z,5.57
2022-08-11T05:53:46.266Z,5.25
2022-08-11T05:56:10.399Z,5.93
2022-08-11T05:58:13.561Z,5.60
2022-08-11T06:00:15.805Z,5.35
2022-08-11T06:02:18.230Z,4.97
2022-08-11T06:04:24.619Z,5.80
2022-08-11T06:06:29.262Z,5.43
2022-08-11T06:08:37.010Z,5.80
2022-08-11T06:10:41.493Z,5.55
2022-08-11T06:12:43.608Z,5.32
2022-08-11T06:14:46.535Z,6.35
2022-08-11T06:16:50.271Z,6.28
2022-08-11T06:18:52.285Z,6.20
2022-08-11T06:20:58.310Z,5.95
2022-08-11T06:23:03.875Z,6.22
2022-08-11T06:25:12.537Z,6.28
2022-08-11T06:27:21.326Z,6.38
2022-08-11T06:29:37.980Z,6.65
2022-08-11T06:31:59.648Z,6.53
2022-08-11T06:34:41.140Z,5.90
2022-08-11T06:37:00.891Z,6.07
2022-08-11T06:39:26.739Z,6.57
2022-08-11T06:41:44.620Z,6.20
2022-08-11T06:44:14.454Z,6.65
2022-08-11T06:46:24.753Z,6.97
2022-08-11T06:48:33.739Z,7.05
2022-08-11T06:50:54.879Z,6.55
2022-08-11T06:52:58.143Z,6.72
2022-08-11T06:55:55.818Z,6.90
2022-08-11T06:57:54.187Z,7.07
2022-08-11T07:00:15.453Z,6.72
2022-08-11T07:02:22.504Z,7.03
2022-08-11T07:04:43.325Z,6.47
2022-08-11T07:09:43.797Z,6.65
2022-08-11T07:12:21.141Z,8.10
2022-08-11T07:14:46.545Z,7.47
2022-08-11T07:16:51.801Z,7.20
2022-08-11T07:19:17.836Z,8.60
2022-08-11T07:22:02.868Z,8.30
2022-08-11T07:24:34.497Z,7.63
2022-08-11T07:27:14.314Z,8.02
2022-08-11T07:29:16.666Z,8.27
2022-08-11T07:31:42.640Z,7.25
2022-08-11T07:34:05.566Z,7.63
2022-08-11T07:36:13.943Z,7.22
2022-08-11T07:38:25.340Z,7.40
2022-08-11T07:40:29.046Z,8.00
2022-08-11T07:42:36.422Z,8.50
2022-08-11T07:44:59.897Z,7.45
2022-08-11T07:47:21.055Z,7.80
2022-08-11T07:49:41.242Z,7.32
2022-08-11T07:52:02.689Z,8.32
2022-08-11T07:54:16.294Z,7.90
2022-08-11T07:56:28.112Z,7.85
2022-08-11T07:59:06.260Z,7.25
2022-08-11T08:01:30.499Z,7.28
2022-08-11T08:03:54.800Z,7.30
2022-08-11T08:06:35.658Z,7.65
2022-08-11T08:09:00.723Z,6.78
2022-08-11T08:11:27.568Z,7.22
2022-08-11T08:13:51.203Z,6.82
2022-08-11T08:16:12.435Z,7.50
2022-08-11T08:18:26.814Z,6.70
2022-08-11T08:20:34.599Z,7.35
2022-08-11T08:22:39.505Z,7.47
2022-08-11T08:24:43.003Z,6.43
2022-08-11T08:27:03.811Z,6.50
2022-08-11T08:29:25.906Z,7.05
2022-08-11T08:31:27.835Z,6.15
2022-08-11T08:33:32.170Z,6.38
2022-08-11T08:35:36.742Z,6.88
2022-08-11T08:37:58.101Z,5.65
2022-08-11T08:40:00.237Z,4.90
2022-08-11T08:42:07.186Z,6.82
2022-08-11T08:44:37.324Z,5.93
2022-08-11T08:46:42.703Z,5.15
2022-08-11T08:48:47.195Z,6.00
2022-08-11T08:51:12.573Z,5.38
2022-08-11T08:53:18.355Z,5.80
2022-08-11T08:55:21.491Z,4.15
2022-08-11T08:57:24.337Z,5.28
2022-08-11T08:59:47.971Z,5.22
2022-08-11T09:02:01.606Z,4.80
2022-08-11T09:04:11.749Z,4.05
2022-08-11T09:06:17.324Z,4.70
2022-08-11T09:08:19.535Z,5.13
2022-08-11T09:10:21.722Z,5.53
2022-08-11T09:12:36.039Z,5.35
2022-08-11T09:15:11.118Z,4.30
2022-08-11T09:17:14.150Z,4.40
2022-08-11T09:19:18.168Z,5.13
2022-08-11T09:21:49.286Z,4.60
2022-08-11T09:24:10.107Z,4.18
2022-08-11T09:26:35.496Z,3.60
2022-08-11T09:28:37.640Z,4.43
2022-08-11T09:30:42.806Z,3.50
2022-08-11T09:32:44.722Z,3.20
2022-08-11T09:34:47.441Z,3.63
2022-08-11T09:37:09.282Z,3.20
2022-08-11T09:39:31.612Z,2.80
2022-08-11T09:42:01.217Z,3.78
2022-08-11T09:44:15.633Z,3.05
2022-08-11T09:46:27.393Z,3.45
2022-08-11T09:48:45.872Z,2.78
2022-08-11T09:50:56.058Z,2.95
2022-08-11T09:53:34.818Z,2.35
2022-08-11T09:55:20.186Z,3.60
2022-08-11T09:57:41.506Z,2.47
2022-08-11T09:59:43.382Z,3.08
2022-08-11T10:01:52.495Z,2.40
2022-08-11T10:04:01.834Z,2.20
2022-08-11T10:06:34.101Z,2.45
2022-08-11T10:08:39.852Z,2.72
2022-08-11T10:10:42.106Z,2.80
2022-08-11T10:12:56.507Z,2.30
2022-08-11T10:15:22.908Z,5.68
2022-08-11T10:17:25.089Z,2.78
2022-08-11T10:19:27.448Z,2.17
2022-08-11T10:21:39.670Z,2.42
2022-08-11T10:24:05.559Z,2.60
2022-08-11T10:26:26.733Z,2.45
2022-08-11T10:28:50.090Z,2.30
2022-08-11T10:31:17.786Z,1.98
2022-08-11T10:33:45.717Z,2.20
2022-08-11T10:36:01.976Z,2.08
2022-08-11T10:38:08.911Z,2.13
2022-08-11T10:40:18.388Z,2.00
2022-08-11T10:42:57.284Z,2.30
2022-08-11T10:45:04.233Z,1.40
2022-08-11T10:47:25.784Z,2.30
2022-08-11T10:49:28.177Z,2.50
2022-08-11T10:51:52.086Z,1.58
2022-08-11T10:54:14.326Z,1.35
2022-08-11T10:56:36.856Z,1.75
2022-08-11T10:58:49.227Z,1.95
2022-08-11T11:00:56.990Z,1.40
2022-08-11T11:03:23.376Z,1.42
2022-08-11T11:05:30.714Z,1.38
2022-08-11T11:07:48.462Z,1.20
2022-08-11T11:10:01.757Z,2.97
2022-08-11T11:12:25.121Z,1.33
2022-08-11T11:14:58.307Z,2.28
2022-08-11T11:17:14.342Z,1.70
2022-08-11T11:19:20.886Z,2.33
2022-08-11T11:21:25.143Z,1.52
2022-08-11T11:23:48.755Z,1.25
2022-08-11T11:26:14.965Z,1.15
2022-08-11T11:28:35.092Z,1.60
2022-08-11T11:31:11.652Z,1.17
2022-08-11T11:34:06.580Z,2.20
2022-08-11T11:36:17.313Z,1.98
2022-08-11T11:38:19.473Z,2.03
2022-08-11T11:40:28.678Z,3.13
2022-08-11T11:42:33.834Z,2.58
2022-08-11T11:44:38.226Z,1.98
2022-08-11T11:46:41.613Z,1.92
2022-08-11T11:48:43.914Z,1.80
2022-08-11T11:50:45.881Z,2.60
2022-08-11T11:52:47.727Z,1.50
2022-08-11T11:54:53.445Z,1.50
2022-08-11T11:56:57.659Z,1.20
2022-08-11T11:59:18.274Z,1.65
2022-08-11T12:01:24.214Z,1.35
2022-08-11T12:03:26.833Z,2.85
2022-08-11T12:05:29.001Z,1.48
2022-08-11T12:07:56.996Z,1.55
2022-08-11T12:10:12.514Z,1.38
2022-08-11T12:12:34.953Z,1.20
2022-08-11T12:14:37.299Z,1.75
2022-08-11T12:16:44.680Z,1.30
2022-08-11T12:18:49.581Z,1.13
2022-08-11T12:20:53.906Z,1.50
2022-08-11T12:23:16.220Z,1.15
2022-08-11T12:25:39.854Z,1.20
2022-08-11T12:27:42.336Z,1.50
2022-08-11T12:29:50.110Z,1.88
2022-08-11T12:31:58.756Z,1.33
2022-08-11T12:34:09.220Z,1.33
2022-08-11T12:36:15.939Z,1.02
2022-08-11T12:38:26.063Z,1.42
2022-08-11T12:41:15.153Z,1.83
2022-08-11T12:43:40.821Z,1.40
2022-08-11T12:45:44.127Z,1.95
2022-08-11T12:48:59.109Z,1.60
2022-08-11T12:50:52.590Z,1.15
2022-08-11T12:52:57.109Z,1.63
2022-08-11T12:55:14.101Z,1.60
2022-08-11T12:57:47.621Z,1.00
2022-08-11T13:00:08.816Z,1.75
2022-08-11T13:02:35.708Z,1.30
2022-08-11T13:04:56.243Z,1.20
2022-08-11T13:06:59.109Z,1.52
2022-08-11T13:09:01.656Z,1.13
2022-08-11T13:11:23.263Z,1.20
2022-08-11T13:13:52.935Z,1.30
2022-08-11T13:15:49.971Z,1.35
2022-08-11T13:17:54.118Z,2.00
2022-08-11T13:19:58.838Z,2.25
2022-08-11T13:22:02.556Z,1.88
2022-08-11T13:24:04.748Z,1.10
2022-08-11T13:26:08.973Z,1.50
2022-08-11T13:28:12.724Z,1.50
2022-08-11T13:30:40.310Z,1.30
2022-08-11T13:32:45.842Z,1.02
2022-08-11T13:34:48.253Z,1.40
2022-08-11T13:36:55.331Z,2.03
2022-08-11T13:39:01.123Z,1.10
2022-08-11T13:41:23.191Z,1.42
2022-08-11T13:43:25.701Z,2.22
2022-08-11T13:45:28.111Z,1.58
2022-08-11T13:47:30.381Z,1.80
2022-08-11T13:49:35.678Z,1.65
2022-08-11T13:51:41.149Z,1.60
2022-08-11T13:53:43.800Z,1.50
2022-08-11T13:55:51.463Z,1.55
2022-08-11T13:58:09.072Z,1.20
2022-08-11T14:00:25.094Z,1.75
2022-08-11T14:02:31.104Z,1.50
2022-08-11T14:04:43.876Z,1.60
2022-08-11T14:06:51.103Z,1.30
2022-08-11T14:08:55.137Z,1.73
2022-08-11T14:12:21.618Z,2.45
2022-08-11T14:13:48.072Z,2.30
2022-08-11T14:15:50.759Z,2.70
2022-08-11T14:17:57.254Z,2.65
2022-08-11T14:20:38.677Z,2.22
2022-08-11T14:22:28.035Z,1.83
2022-08-11T14:24:30.241Z,2.03
2022-08-11T14:26:39.117Z,1.50
2022-08-11T14:28:45.127Z,1.10
2022-08-11T14:31:00.462Z,1.25
2022-08-11T14:33:17.356Z,1.48
2022-08-11T14:35:22.545Z,1.75
2022-08-11T14:37:27.810Z,1.60
2022-08-11T14:39:36.007Z,1.38
2022-08-11T14:42:09.963Z,1.50
2022-08-11T14:44:33.980Z,2.88
2022-08-11T14:46:55.589Z,3.95
2022-08-11T14:48:58.062Z,1.60
2022-08-11T14:51:00.020Z,1.33
2022-08-11T14:53:11.290Z,1.10
2022-08-11T14:55:41.297Z,1.20
2022-08-11T14:58:04.695Z,1.25
2022-08-11T15:00:09.050Z,1.80
2022-08-11T15:02:31.349Z,2.75
2022-08-11T15:04:36.533Z,1.50
2022-08-11T15:06:40.550Z,2.70
2022-08-11T15:08:54.826Z,1.70
2022-08-11T15:10:56.605Z,2.35
2022-08-11T15:13:00.426Z,2.47
2022-08-11T15:15:25.145Z,1.85
2022-08-11T15:17:29.457Z,2.20
2022-08-11T15:20:05.251Z,1.63
2022-08-11T15:22:28.005Z,2.00
2022-08-11T15:24:31.102Z,2.00
2022-08-11T15:26:58.870Z,3.10
2022-08-11T15:29:23.080Z,2.40
2022-08-11T15:31:49.432Z,2.40
2022-08-11T15:34:14.608Z,2.97
2022-08-11T15:36:39.771Z,1.70
2022-08-11T15:38:54.990Z,2.17
2022-08-11T15:41:16.867Z,2.50
2022-08-11T15:43:44.797Z,4.75
2022-08-11T15:45:52.090Z,2.58
2022-08-11T15:48:05.567Z,6.35
2022-08-11T15:50:14.113Z,2.30
2022-08-11T15:52:23.111Z,1.85
2022-08-11T15:54:31.216Z,2.10
2022-08-11T15:56:35.365Z,1.60
2022-08-11T15:59:40.897Z,1.40
2022-08-11T16:01:44.262Z,1.40
2022-08-11T16:04:12.603Z,2.13
2022-08-11T16:06:14.712Z,1.75
2022-08-11T16:08:29.527Z,7.43
2022-08-11T16:10:36.537Z,2.83
2022-08-11T16:13:06.023Z,1.85
2022-08-11T16:15:34.181Z,1.90
2022-08-11T16:17:41.656Z,1.98
2022-08-11T16:19:46.004Z,2.17
2022-08-11T16:21:50.790Z,1.27
2022-08-11T16:23:55.465Z,1.20
2022-08-11T16:27:07.218Z,1.63
2022-08-11T16:28:22.619Z,1.55
2022-08-11T16:30:26.072Z,1.38
2022-08-11T16:32:28.589Z,2.28
2022-08-11T16:34:49.794Z,1.60
2022-08-11T16:37:10.103Z,2.05
2022-08-11T16:41:41.359Z,1.38
2022-08-11T16:44:07.812Z,1.38
2022-08-11T16:46:31.330Z,1.30
2022-08-11T16:48:38.618Z,1.35
2022-08-11T16:50:42.107Z,1.55
2022-08-11T16:52:43.938Z,1.23
2022-08-11T16:54:47.780Z,1.50
2022-08-11T16:56:52.016Z,1.35
2022-08-11T16:59:17.136Z,1.30
2022-08-11T17:01:21.694Z,1.30
2022-08-11T17:03:42.336Z,1.42
2022-08-11T17:06:08.805Z,1.20
2022-08-11T17:08:29.186Z,1.35
2022-08-11T17:13:09.414Z,1.10
2022-08-11T17:15:38.350Z,1.63
2022-08-11T17:17:41.094Z,1.15
2022-08-11T17:20:41.623Z,1.50
2022-08-11T17:22:29.881Z,1.48
2022-08-11T17:24:37.238Z,1.38
2022-08-11T17:26:55.760Z,1.10
2022-08-11T17:29:01.140Z,1.05
2022-08-11T17:31:23.065Z,1.17
2022-08-11T17:33:43.916Z,1.27
2022-08-11T17:35:45.740Z,1.80
2022-08-11T17:37:49.160Z,1.15
2022-08-11T17:39:53.605Z,1.15
2022-08-11T17:42:15.064Z,1.38
2022-08-11T17:44:35.591Z,1.00
2022-08-11T17:47:01.075Z,1.42
2022-08-11T17:49:10.220Z,1.73
2022-08-11T17:51:34.541Z,1.38
2022-08-11T17:54:10.045Z,1.52
2022-08-11T17:56:44.237Z,1.40
2022-08-11T17:59:07.289Z,1.30
2022-08-11T18:01:11.403Z,1.38
2022-08-11T18:03:29.767Z,1.30
2022-08-11T18:05:34.624Z,0.90
2022-08-11T18:07:56.843Z,1.20
2022-08-11T18:10:17.430Z,1.33
2022-08-11T18:12:37.859Z,1.40
2022-08-11T18:17:19.300Z,1.50
2022-08-11T18:22:14.338Z,1.63
2022-08-11T18:24:38.951Z,1.67
2022-08-11T18:27:03.246Z,1.60
2022-08-11T18:29:25.914Z,1.20
2022-08-11T18:31:46.826Z,1.20
2022-08-11T18:34:16.355Z,1.00
2022-08-11T18:36:42.431Z,1.00
2022-08-11T18:39:06.701Z,1.35
2022-08-11T18:41:29.607Z,1.25
2022-08-11T18:43:53.533Z,1.17
2022-08-11T18:46:20.125Z,1.20
2022-08-11T18:48:42.603Z,1.30
2022-08-11T18:51:29.989Z,1.20
2022-08-11T18:53:47.531Z,1.30
2022-08-11T18:56:08.515Z,1.80
2022-08-11T18:58:33.339Z,1.58
2022-08-11T19:00:56.414Z,2.25
2022-08-11T19:03:18.643Z,1.48
2022-08-11T19:06:32.026Z,1.80
2022-08-11T19:08:22.938Z,1.42
2022-08-11T19:10:43.972Z,1.35
2022-08-11T19:13:06.611Z,1.23
2022-08-11T19:15:31.707Z,1.20
2022-08-11T19:17:54.804Z,1.45
2022-08-11T19:20:17.362Z,1.63
2022-08-11T19:22:40.052Z,2.00
2022-08-11T19:25:10.379Z,2.10
2022-08-11T19:27:32.758Z,2.15
2022-08-11T19:30:07.785Z,2.38
2022-08-11T19:32:35.728Z,2.58
2022-08-11T19:34:57.522Z,3.00
2022-08-11T19:37:24.067Z,3.17
2022-08-11T19:39:47.375Z,3.40
2022-08-11T19:42:08.743Z,2.97
2022-08-11T19:44:30.858Z,3.20
2022-08-11T19:46:55.016Z,3.40
2022-08-11T19:49:18.039Z,3.00
2022-08-11T19:51:39.291Z,2.85
2022-08-11T19:54:00.964Z,3.30
2022-08-11T19:56:22.243Z,2.70
2022-08-11T19:58:43.843Z,2.42
2022-08-11T20:01:05.162Z,2.60
2022-08-11T20:03:28.834Z,2.22
2022-08-11T20:05:59.775Z,2.42
2022-08-11T20:08:21.187Z,1.90
2022-08-11T20:10:43.478Z,1.77
2022-08-11T20:13:04.974Z,1.90
2022-08-11T20:15:31.967Z,2.40
2022-08-11T20:17:56.682Z,1.85
2022-08-11T20:20:22.124Z,2.58
2022-08-11T20:22:45.564Z,1.83
2022-08-11T20:25:11.219Z,2.78
2022-08-11T20:27:33.284Z,2.40
2022-08-11T20:29:55.110Z,2.38
2022-08-11T20:32:17.112Z,2.47
2022-08-11T20:34:38.782Z,2.17
2022-08-11T20:37:00.229Z,2.92
2022-08-11T20:39:22.270Z,2.85
2022-08-11T20:41:58.967Z,2.80
2022-08-11T20:44:21.715Z,2.90
2022-08-11T20:46:43.952Z,2.38
2022-08-11T20:49:05.108Z,2.17
2022-08-11T20:51:26.086Z,3.50
2022-08-11T20:53:47.471Z,1.90
2022-08-11T20:56:08.881Z,1.92
2022-08-11T20:58:49.128Z,2.03
2022-08-11T21:01:20.290Z,2.05
2022-08-11T21:03:54.765Z,2.15
2022-08-11T21:06:31.636Z,2.28
2022-08-11T21:08:55.833Z,1.85
2022-08-11T21:16:25.359Z,2.05
2022-08-11T21:18:51.046Z,1.95
2022-08-11T21:21:16.407Z,2.28
2022-08-11T21:23:37.537Z,22.80
2022-08-11T21:26:04.492Z,1.75
2022-08-11T21:28:28.515Z,2.22
2022-08-11T21:30:49.942Z,2.05
2022-08-11T21:33:11.717Z,4.22
2022-08-11T21:35:35.861Z,2.08
2022-08-11T21:38:07.376Z,2.58
2022-08-11T21:40:30.037Z,2.40
2022-08-11T21:42:55.330Z,1.70
2022-08-11T21:45:19.571Z,1.60
2022-08-11T21:47:44.302Z,1.70
2022-08-11T21:50:06.174Z,1.70
2022-08-11T21:52:27.038Z,2.42
2022-08-11T21:54:47.499Z,2.38
2022-08-11T21:57:09.019Z,2.03
2022-08-11T21:59:31.398Z,1.98
2022-08-11T22:01:51.915Z,2.28
2022-08-11T22:04:14.415Z,2.10
2022-08-11T22:06:35.864Z,1.95
2022-08-11T22:08:56.497Z,1.90
2022-08-11T22:14:07.014Z,2.25
2022-08-11T22:16:29.059Z,1.65
2022-08-11T22:18:53.608Z,2.50
2022-08-11T22:21:56.830Z,2.10
2022-08-11T22:23:59.193Z,1.73
2022-08-11T22:26:20.836Z,2.15
2022-08-11T22:28:43.028Z,2.35
2022-08-11T22:31:03.516Z,2.33
2022-08-11T22:33:28.754Z,2.22
2022-08-11T22:35:50.664Z,2.33
2022-08-11T22:38:11.629Z,2.25
2022-08-11T22:40:33.040Z,2.05
2022-08-11T22:42:53.631Z,2.10
2022-08-11T22:47:40.558Z,2.13
2022-08-11T22:50:01.668Z,1.90
2022-08-11T22:52:22.275Z,2.60
2022-08-11T22:57:03.981Z,2.33
2022-08-11T22:59:25.930Z,2.10
2022-08-11T23:01:55.339Z,2.03
2022-08-11T23:04:19.762Z,2.30
2022-08-11T23:06:41.045Z,2.22
2022-08-11T23:09:01.808Z,1.95
2022-08-11T23:11:23.221Z,2.30
2022-08-11T23:13:44.907Z,2.33
2022-08-11T23:16:05.422Z,2.53
2022-08-11T23:18:26.247Z,2.58
2022-08-11T23:20:55.102Z,2.15
2022-08-11T23:23:16.397Z,1.95
2022-08-11T23:25:36.767Z,2.10
2022-08-11T23:27:57.612Z,1.98
2022-08-11T23:30:19.881Z,1.98
2022-08-11T23:32:44.506Z,1.77
2022-08-11T23:35:39.884Z,1.90
2022-08-11T23:37:55.617Z,2.00
2022-08-11T23:40:20.440Z,1.80
2022-08-11T23:42:43.430Z,1.67
2022-08-11T23:45:18.474Z,1.75
2022-08-11T23:47:50.105Z,1.60
2022-08-11T23:50:11.352Z,2.08
2022-08-11T23:52:37.566Z,1.60
2022-08-11T23:54:58.779Z,2.17
2022-08-11T23:57:18.971Z,1.58
2022-08-11T23:59:39.583Z,1.63
